Time;durP1;ratioP1;P1;durP2;ratioP2;P2;SDS_P1;SDS_P2;PMS_P1;PMS_P2;Temp;Humidity;BMP_temperature;BMP_pressure;BME280_temperature;BME280_humidity;BME280_pressure;Samples;Min_cycle;Max_cycle;Signal;HPM_P1;HPM_P2
2022/03/02 00:02:16;;;;;;;20.95;10.95;;;;;;;9.29;44.46;102605.06;4974220;28;113205;-87
2022/03/02 00:04:44;;;;;;;19.70;10.30;;;;;;;9.28;44.54;102605.06;4958382;28;123133;-87
2022/03/02 00:07:11;;;;;;;24.80;11.45;;;;;;;9.28;44.42;102589.22;4974505;28;123656;-88
2022/03/02 00:09:39;;;;;;;20.17;10.85;;;;;;;9.25;44.50;102594.50;4957880;28;113311;-88
2022/03/02 00:12:07;;;;;;;22.95;11.07;;;;;;;9.23;44.64;102583.97;4974885;28;112971;-86
2022/03/02 00:14:34;;;;;;;22.40;10.45;;;;;;;9.22;44.54;102591.94;4976307;28;123337;-86
2022/03/02 00:17:01;;;;;;;20.48;10.65;;;;;;;9.21;44.55;102593.69;4974934;28;122363;-87
2022/03/02 00:19:29;;;;;;;20.05;10.65;;;;;;;9.20;44.80;102591.94;4958125;28;113465;-86
2022/03/02 00:21:56;;;;;;;20.52;9.68;;;;;;;9.22;44.45;102599.84;4973853;28;114466;-87
2022/03/02 00:24:23;;;;;;;18.98;9.60;;;;;;;9.22;44.47;102599.84;4958176;28;124103;-87
2022/03/02 00:26:50;;;;;;;19.92;9.98;;;;;;;9.23;44.58;102601.59;4958528;28;122217;-87
2022/03/02 00:29:17;;;;;;;19.92;10.57;;;;;;;9.23;44.72;102602.50;4974676;28;114180;-86
2022/03/02 00:31:45;;;;;;;20.85;10.55;;;;;;;9.24;44.30;102598.94;4973509;28;113091;-86
2022/03/02 00:34:12;;;;;;;20.23;9.65;;;;;;;9.24;44.64;102592.78;4974403;28;124106;-86
2022/03/02 00:36:39;;;;;;;21.60;11.30;;;;;;;9.26;44.33;102588.34;4978021;28;123416;-87
2022/03/02 00:39:07;;;;;;;20.90;10.25;;;;;;;9.26;44.26;102585.72;4958429;28;113708;-86
2022/03/02 00:41:34;;;;;;;20.98;10.32;;;;;;;9.27;44.18;102592.75;4973081;28;114573;-86
2022/03/02 00:44:02;;;;;;;19.02;9.98;;;;;;;9.26;44.66;102588.34;4972845;28;123825;-86
2022/03/02 00:46:29;;;;;;;21.00;9.88;;;;;;;9.27;44.24;102576.91;4957726;28;122084;-86
2022/03/02 00:48:58;;;;;;;18.98;9.77;;;;;;;9.27;44.41;102576.91;4958254;28;113049;-86
2022/03/02 00:51:27;;;;;;;18.90;10.30;;;;;;;9.26;44.05;102575.13;4975703;28;113156;-86
2022/03/02 00:53:54;;;;;;;19.85;10.65;;;;;;;9.25;44.17;102578.66;4974497;28;124385;-87
2022/03/02 00:56:22;;;;;;;19.83;10.10;;;;;;;9.24;44.46;102576.91;4973138;28;124293;-87
2022/03/02 00:58:49;;;;;;;21.70;10.20;;;;;;;9.23;44.42;102577.78;4974449;28;113308;-87
2022/03/02 01:01:16;;;;;;;20.73;10.80;;;;;;;9.21;44.45;102585.78;4973570;28;113738;-87
2022/03/02 01:03:44;;;;;;;20.45;10.63;;;;;;;9.21;44.57;102571.66;4956730;28;125535;-87
2022/03/02 01:06:11;;;;;;;22.67;10.05;;;;;;;9.21;44.28;102576.94;4957187;28;123913;-87
2022/03/02 01:08:39;;;;;;;19.48;9.90;;;;;;;9.21;44.20;102576.94;4956334;28;115669;-88
2022/03/02 01:11:06;;;;;;;22.08;10.07;;;;;;;9.19;44.27;102568.16;4956997;28;113358;-87
2022/03/02 01:13:34;;;;;;;19.63;9.57;;;;;;;9.18;44.37;102569.94;4956893;28;122801;-87
2022/03/02 01:16:01;;;;;;;20.33;10.60;;;;;;;9.16;44.33;102564.66;4973428;28;123599;-87
2022/03/02 01:18:29;;;;;;;21.17;10.23;;;;;;;9.16;44.18;102569.94;4973442;28;113757;-87
2022/03/02 01:20:56;;;;;;;23.17;11.05;;;;;;;9.16;44.06;102558.50;4972850;28;113616;-87
2022/03/02 01:23:23;;;;;;;21.35;10.68;;;;;;;9.12;44.23;102552.38;4973156;28;124429;-88
2022/03/02 01:25:51;;;;;;;19.23;10.50;;;;;;;9.12;44.15;102557.66;4973069;28;123494;-86
2022/03/02 01:28:18;;;;;;;21.20;10.90;;;;;;;9.12;44.34;102570.00;4957054;28;113850;-86
2022/03/02 01:30:45;;;;;;;18.23;9.60;;;;;;;9.10;44.34;102554.16;4956604;28;112905;-87
2022/03/02 01:33:12;;;;;;;19.13;10.07;;;;;;;9.08;44.08;102550.66;4955849;28;123095;-85
2022/03/02 01:35:39;;;;;;;19.50;10.27;;;;;;;9.09;44.47;102552.41;4971852;28;123431;-86
2022/03/02 01:38:06;;;;;;;19.83;10.52;;;;;;;9.10;44.35;102546.22;4972644;28;113808;-86
2022/03/02 01:40:34;;;;;;;18.15;9.95;;;;;;;9.10;44.22;102548.88;4972152;28;113158;-86
2022/03/02 01:43:02;;;;;;;22.80;10.05;;;;;;;9.10;44.34;102543.59;4972235;28;123327;-86
2022/03/02 01:45:29;;;;;;;19.95;10.23;;;;;;;9.07;44.21;102537.47;4956381;28;123869;-85
2022/03/02 01:48:03;;;;;;;21.23;9.60;;;;;;;9.07;44.15;102542.75;4972620;28;113980;-86
2022/03/02 01:50:32;;;;;;;19.20;9.48;;;;;;;9.06;44.44;102541.88;4972299;28;113997;-86
2022/03/02 01:52:59;;;;;;;19.33;10.35;;;;;;;9.05;44.10;102534.84;4972337;28;123211;-86
2022/03/02 01:55:27;;;;;;;19.30;9.73;;;;;;;9.05;44.09;102529.53;4973316;28;123624;-85
2022/03/02 01:57:55;;;;;;;17.55;9.85;;;;;;;9.04;44.14;102537.47;4956255;28;114469;-86
2022/03/02 02:00:23;;;;;;;18.48;9.23;;;;;;;9.02;44.36;102529.56;4955942;28;114298;-86
2022/03/02 02:02:52;;;;;;;21.77;10.23;;;;;;;9.00;44.16;102536.66;4955965;28;123726;-86
2022/03/02 02:05:19;;;;;;;21.80;9.55;;;;;;;8.99;44.10;102526.13;4956443;28;123232;-86
2022/03/02 02:07:47;;;;;;;20.17;10.07;;;;;;;8.97;44.00;102531.41;4973056;28;113529;-85
2022/03/02 02:10:15;;;;;;;19.83;9.07;;;;;;;8.97;44.15;102531.41;4958740;28;113621;-85
2022/03/02 02:12:43;;;;;;;22.27;9.02;;;;;;;8.94;44.37;102529.66;4976536;28;123746;-88
2022/03/02 02:15:10;;;;;;;20.23;10.38;;;;;;;8.92;44.25;102527.94;4976489;28;123371;-86
2022/03/02 02:17:38;;;;;;;19.17;9.77;;;;;;;8.89;44.14;102522.69;4975815;28;113836;-87
2022/03/02 02:20:06;;;;;;;19.63;10.60;;;;;;;8.86;44.09;102528.00;4993635;28;114594;-86
2022/03/02 02:22:43;;;;;;;21.58;9.85;;;;;;;8.85;44.62;102526.25;4959855;28;124182;-87
2022/03/02 02:25:11;;;;;;;19.75;9.73;;;;;;;8.85;44.17;102515.69;4993528;28;123201;-86
2022/03/02 02:27:40;;;;;;;18.92;9.45;;;;;;;8.81;43.93;102520.13;4960414;28;113957;-86
2022/03/02 02:30:07;;;;;;;22.20;9.82;;;;;;;8.79;44.54;102521.03;4976186;28;114880;-85
2022/03/02 02:32:36;;;;;;;17.88;9.10;;;;;;;8.79;44.50;102518.41;4977391;28;122511;-86
2022/03/02 02:35:06;;;;;;;21.65;10.15;;;;;;;8.75;44.27;102510.50;4960442;28;121553;-86
2022/03/02 02:37:35;;;;;;;18.70;9.88;;;;;;;8.75;44.53;102499.91;4961186;28;113713;-84
2022/03/02 02:40:08;;;;;;;19.98;9.77;;;;;;;8.75;44.39;102499.91;4975809;28;113596;-86
2022/03/02 02:42:36;;;;;;;19.60;9.68;;;;;;;8.76;44.31;102495.53;4958977;28;123503;-87
2022/03/02 02:45:04;;;;;;;17.30;8.93;;;;;;;8.74;44.68;102492.91;4956539;28;122160;-87
2022/03/02 02:47:34;;;;;;;19.05;9.43;;;;;;;8.74;44.49;102487.63;4988877;28;114451;-86
2022/03/02 02:50:13;;;;;;;18.20;9.13;;;;;;;8.73;44.45;102488.50;4994152;28;113382;-86
2022/03/02 02:52:41;;;;;;;17.70;9.35;;;;;;;8.75;44.58;102488.50;4995077;28;123331;-86
2022/03/02 02:55:10;;;;;;;18.92;9.57;;;;;;;8.73;44.14;102488.50;4994806;28;123064;-85
2022/03/02 02:57:37;;;;;;;17.63;9.80;;;;;;;8.71;44.18;102485.00;4978490;28;114079;-87
2022/03/02 03:00:09;;;;;;;18.33;9.48;;;;;;;8.70;44.17;102491.19;4978069;28;112916;-86
2022/03/02 03:02:37;;;;;;;20.33;9.80;;;;;;;8.69;44.32;102483.28;4978469;28;123402;-85
2022/03/02 03:05:04;;;;;;;20.55;9.52;;;;;;;8.67;44.11;102485.94;4978951;28;123785;-86
2022/03/02 03:07:31;;;;;;;17.20;9.00;;;;;;;8.64;44.35;102482.44;4995231;28;114198;-87
2022/03/02 03:09:59;;;;;;;21.33;9.75;;;;;;;8.58;44.43;102480.75;4993610;28;113565;-86
2022/03/02 03:12:26;;;;;;;16.85;8.80;;;;;;;8.56;44.20;102487.81;4994248;28;123004;-86
2022/03/02 03:14:53;;;;;;;17.80;9.25;;;;;;;8.52;44.24;102480.81;4994380;28;122887;-87
2022/03/02 03:17:20;;;;;;;18.42;9.00;;;;;;;8.49;44.47;102480.84;4978376;28;113809;-86
2022/03/02 03:19:48;;;;;;;18.42;9.13;;;;;;;8.46;44.17;102486.16;4993306;28;113526;-87
2022/03/02 03:22:15;;;;;;;17.80;9.20;;;;;;;8.43;44.09;102491.47;4978343;28;123091;-86
2022/03/02 03:24:43;;;;;;;19.88;9.45;;;;;;;8.39;44.42;102490.59;4993672;28;123290;-86
2022/03/02 03:27:10;;;;;;;19.08;9.43;;;;;;;8.37;44.27;102481.81;4994951;28;113998;-87
2022/03/02 03:29:38;;;;;;;18.38;9.25;;;;;;;8.35;44.40;102479.16;4978576;28;114146;-85
2022/03/02 03:32:06;;;;;;;18.05;9.05;;;;;;;8.31;44.29;102477.47;4976999;28;123414;-87
2022/03/02 03:34:33;;;;;;;17.70;9.25;;;;;;;8.30;44.10;102480.97;4994510;28;123698;-86
2022/03/02 03:37:01;;;;;;;18.15;8.82;;;;;;;8.25;44.12;102477.53;4977773;28;115915;-86
2022/03/02 03:39:28;;;;;;;16.67;8.98;;;;;;;8.21;44.09;102486.34;4977990;28;114024;-87
2022/03/02 03:41:55;;;;;;;18.15;9.02;;;;;;;8.18;44.45;102481.09;4994006;28;124597;-85
2022/03/02 03:44:23;;;;;;;18.00;8.70;;;;;;;8.13;44.41;102488.16;4977377;28;123664;-87
2022/03/02 03:46:51;;;;;;;18.05;8.93;;;;;;;8.09;44.53;102481.19;4977456;28;113745;-87
2022/03/02 03:49:18;;;;;;;19.63;8.60;;;;;;;8.06;44.59;102476.81;4977732;28;113453;-87
2022/03/02 03:51:45;;;;;;;16.25;8.43;;;;;;;8.04;44.56;102475.03;4993476;28;123344;-87
2022/03/02 03:54:12;;;;;;;16.70;8.50;;;;;;;8.03;44.20;102483.88;4967813;28;123866;-86
2022/03/02 03:56:39;;;;;;;19.20;9.00;;;;;;;7.99;44.64;102465.41;4955192;28;113560;-86
2022/03/02 03:59:08;;;;;;;18.95;8.75;;;;;;;7.98;44.38;102468.91;4955405;28;115189;-86
2022/03/02 04:01:35;;;;;;;20.67;9.80;;;;;;;7.97;44.61;102475.09;4936218;28;123862;-87
2022/03/02 04:04:03;;;;;;;16.85;8.95;;;;;;;7.96;44.35;102475.97;4954700;28;123426;-86
2022/03/02 04:06:31;;;;;;;20.60;9.20;;;;;;;7.93;44.42;102476.03;4955411;28;113259;-86
2022/03/02 04:08:58;;;;;;;19.95;9.65;;;;;;;7.91;44.26;102469.00;4970799;28;112942;-86
2022/03/02 04:11:25;;;;;;;18.55;9.30;;;;;;;7.90;44.37;102467.25;4953748;28;123736;-87
2022/03/02 04:13:53;;;;;;;19.70;9.05;;;;;;;7.88;44.40;102461.97;4954527;28;123033;-86
2022/03/02 04:16:20;;;;;;;20.38;9.30;;;;;;;7.87;44.68;102460.22;4938762;28;113365;-87
2022/03/02 04:18:48;;;;;;;18.85;9.05;;;;;;;7.86;44.53;102463.75;4955385;28;113316;-86
2022/03/02 04:21:15;;;;;;;16.83;8.90;;;;;;;7.83;44.55;102463.78;4953875;28;123875;-86
2022/03/02 04:23:43;;;;;;;18.10;9.18;;;;;;;7.82;44.56;102456.75;4969994;28;123378;-86
2022/03/02 04:26:10;;;;;;;16.45;8.70;;;;;;;7.80;44.58;102454.13;4970578;28;114278;-87
2022/03/02 04:28:38;;;;;;;17.20;8.82;;;;;;;7.79;44.57;102446.22;4938587;28;114519;-87
2022/03/02 04:31:05;;;;;;;17.90;9.35;;;;;;;7.76;44.50;102446.25;4952706;28;122799;-87
2022/03/02 04:33:32;;;;;;;17.15;9.05;;;;;;;7.73;44.51;102435.72;4954610;28;123389;-87
2022/03/02 04:35:59;;;;;;;18.15;8.88;;;;;;;7.70;44.42;102446.28;4938582;28;113184;-87
2022/03/02 04:38:26;;;;;;;17.77;8.98;;;;;;;7.67;44.58;102441.06;4954495;28;113602;-86
2022/03/02 04:40:53;;;;;;;17.75;8.55;;;;;;;7.63;44.62;102439.31;4936586;28;122493;-86
2022/03/02 04:43:21;;;;;;;16.45;8.68;;;;;;;7.62;44.64;102440.22;4970266;28;123234;-85
2022/03/02 04:45:48;;;;;;;19.08;9.10;;;;;;;7.60;44.44;102441.06;4971661;28;114242;-86
2022/03/02 04:48:15;;;;;;;19.75;8.63;;;;;;;7.58;44.28;102440.22;4938000;28;113130;-86
2022/03/02 04:50:47;;;;;;;19.10;9.18;;;;;;;7.55;44.44;102437.63;4951759;28;123375;-86
2022/03/02 04:53:16;;;;;;;21.60;9.38;;;;;;;7.55;44.48;102432.34;4937066;28;124355;-86
2022/03/02 04:55:46;;;;;;;16.67;8.32;;;;;;;7.53;44.68;102431.44;4953521;28;112536;-86
2022/03/02 04:58:13;;;;;;;17.20;8.68;;;;;;;7.51;44.63;102427.94;4954303;28;112941;-86
2022/03/02 05:00:40;;;;;;;19.58;9.07;;;;;;;7.49;44.42;102427.09;4936630;28;123557;-86
2022/03/02 05:03:08;;;;;;;17.70;8.90;;;;;;;7.48;44.43;102425.34;4972203;28;123277;-85
2022/03/02 05:05:38;;;;;;;17.67;9.00;;;;;;;7.46;44.48;102432.41;4957009;28;113651;-86
2022/03/02 05:08:06;;;;;;;20.45;8.75;;;;;;;7.44;44.72;102428.00;4970863;28;113481;-87
2022/03/02 05:10:34;;;;;;;19.30;8.88;;;;;;;7.42;44.78;102420.09;4953107;28;123250;-86
2022/03/02 05:13:04;;;;;;;20.77;9.13;;;;;;;7.40;44.40;102416.59;4970558;28;123599;-87
2022/03/02 05:15:31;;;;;;;17.35;8.82;;;;;;;7.39;44.52;102415.75;4969595;28;114738;-87
2022/03/02 05:17:58;;;;;;;19.05;8.95;;;;;;;7.38;44.63;102421.00;4938528;28;113712;-86
2022/03/02 05:20:25;;;;;;;21.20;8.65;;;;;;;7.36;44.78;102414.88;4953133;28;123083;-87
2022/03/02 05:22:53;;;;;;;19.02;9.27;;;;;;;7.34;44.70;102416.66;4953508;28;123896;-87
2022/03/02 05:25:21;;;;;;;19.13;8.30;;;;;;;7.32;44.57;102423.69;4954032;28;114020;-87
2022/03/02 05:27:50;;;;;;;19.17;9.07;;;;;;;7.29;44.60;102418.44;4953314;28;113594;-87
2022/03/02 05:30:19;;;;;;;17.83;8.75;;;;;;;7.25;44.70;102416.69;4952216;28;123647;-86
2022/03/02 05:32:47;;;;;;;21.13;9.23;;;;;;;7.19;44.89;102421.13;4937160;28;124151;-87
2022/03/02 05:35:14;;;;;;;17.42;8.90;;;;;;;7.18;44.54;102427.28;4937164;28;113508;-87
2022/03/02 05:37:44;;;;;;;20.23;8.93;;;;;;;7.14;44.87;102415.03;4953690;28;113792;-86
2022/03/02 05:40:15;;;;;;;20.20;9.27;;;;;;;7.12;44.97;102422.06;4966178;28;124401;-87
2022/03/02 05:42:49;;;;;;;19.55;8.75;;;;;;;7.09;44.98;102411.53;4938911;28;123323;-86
2022/03/02 05:45:16;;;;;;;18.25;8.45;;;;;;;7.07;44.61;102413.28;4956091;28;112859;-87
2022/03/02 05:47:43;;;;;;;18.80;8.95;;;;;;;7.05;44.91;102409.78;4939838;28;113366;-87
2022/03/02 05:50:11;;;;;;;19.17;9.30;;;;;;;7.04;44.93;102408.03;4955896;28;123223;-87
2022/03/02 05:52:38;;;;;;;17.40;8.55;;;;;;;7.01;44.51;102413.34;4955943;28;122774;-88
2022/03/02 05:55:06;;;;;;;17.48;8.65;;;;;;;6.99;44.92;102407.19;4957018;28;113831;-87
2022/03/02 05:57:33;;;;;;;17.92;8.80;;;;;;;6.98;45.05;102413.34;4973989;28;114144;-88
2022/03/02 06:00:00;;;;;;;21.10;9.07;;;;;;;6.96;45.10;102415.09;4956724;28;121886;-87
2022/03/02 06:02:27;;;;;;;17.58;9.05;;;;;;;6.93;44.81;102415.09;4955750;28;122800;-87
2022/03/02 06:04:54;;;;;;;18.52;9.07;;;;;;;6.90;45.14;102415.16;4940240;28;114816;-86
2022/03/02 06:07:22;;;;;;;20.95;8.77;;;;;;;6.86;44.78;102413.41;4941576;28;114596;-87
2022/03/02 06:09:50;;;;;;;17.92;9.05;;;;;;;6.85;45.17;102416.91;4939702;28;124312;-87
2022/03/02 06:12:17;;;;;;;18.13;8.88;;;;;;;6.82;45.15;102418.69;4956436;28;123232;-86
2022/03/02 06:14:45;;;;;;;18.85;8.77;;;;;;;6.79;45.21;102412.53;4975490;28;114674;-86
2022/03/02 06:17:13;;;;;;;17.50;8.55;;;;;;;6.76;45.14;102416.06;4943760;28;113961;-87
2022/03/02 06:19:41;;;;;;;18.65;8.77;;;;;;;6.73;45.08;102421.34;4956588;28;123056;-87
2022/03/02 06:22:09;;;;;;;17.45;8.48;;;;;;;6.73;45.32;102429.25;4972326;28;123663;-87
2022/03/02 06:24:37;;;;;;;19.48;9.02;;;;;;;6.70;45.31;102429.25;4957585;28;113506;-87
2022/03/02 06:27:04;;;;;;;18.60;8.80;;;;;;;6.67;45.27;102428.38;4957585;28;113300;-87
2022/03/02 06:29:34;;;;;;;18.10;8.90;;;;;;;6.66;45.24;102426.63;4955764;28;124071;-87
2022/03/02 06:32:02;;;;;;;18.83;8.35;;;;;;;6.63;45.10;102427.53;4956342;28;123044;-87
2022/03/02 06:34:30;;;;;;;18.00;8.75;;;;;;;6.62;45.29;102431.03;4958481;28;114758;-87
2022/03/02 06:36:57;;;;;;;18.90;8.77;;;;;;;6.62;45.10;102431.03;4957899;28;113367;-87
2022/03/02 06:39:24;;;;;;;17.67;8.50;;;;;;;6.61;45.59;102429.25;4940671;28;123476;-86
2022/03/02 06:42:23;;;;;;;19.27;9.35;;;;;;;6.59;45.29;102431.03;4955627;28;121849;-87
2022/03/02 06:44:55;;;;;;;20.80;9.15;;;;;;;6.59;45.47;102436.28;4974154;28;114862;-87
2022/03/02 06:47:35;;;;;;;20.63;8.50;;;;;;;6.57;45.65;102427.53;4960742;28;113926;-87
2022/03/02 06:50:07;;;;;;;18.23;8.98;;;;;;;6.59;45.40;102438.94;4984819;28;123312;-86
2022/03/02 06:52:41;;;;;;;18.98;8.43;;;;;;;6.57;45.62;102435.44;4980447;28;123332;-86
2022/03/02 06:55:11;;;;;;;19.45;9.23;;;;;;;6.59;45.65;102436.28;4995512;28;115012;-85
2022/03/02 06:57:40;;;;;;;17.83;8.52;;;;;;;6.60;45.54;102438.94;4980037;28;113689;-86
2022/03/02 07:00:16;;;;;;;24.15;9.10;;;;;;;6.63;45.50;102443.34;4994593;28;123856;-86
2022/03/02 07:02:48;;;;;;;19.13;8.80;;;;;;;6.66;45.61;102448.56;4975545;28;122454;-87
2022/03/02 07:05:17;;;;;;;20.80;8.63;;;;;;;6.71;46.05;102445.94;4942439;28;113534;-87
2022/03/02 07:07:46;;;;;;;20.15;8.93;;;;;;;6.78;45.85;102443.28;4973488;28;112507;-84
2022/03/02 07:10:13;;;;;;;18.55;8.57;;;;;;;6.88;45.98;102443.25;4954055;28;122566;-85
2022/03/02 07:12:41;;;;;;;18.15;8.85;;;;;;;6.97;45.99;102440.56;4956366;28;124199;-86
2022/03/02 07:15:09;;;;;;;18.65;8.98;;;;;;;7.06;45.85;102440.50;4971797;28;114026;-85
2022/03/02 07:17:36;;;;;;;17.05;8.65;;;;;;;7.14;45.95;102441.38;4971966;28;112108;-86
2022/03/02 07:20:07;;;;;;;18.75;9.02;;;;;;;7.22;45.72;102439.56;4953325;28;123894;-86
2022/03/02 07:22:38;;;;;;;19.30;9.27;;;;;;;7.28;45.84;102438.66;4955275;28;123440;-86
2022/03/02 07:25:14;;;;;;;20.08;8.90;;;;;;;7.33;45.72;102446.53;4955837;28;113272;-87
2022/03/02 07:27:42;;;;;;;17.73;8.70;;;;;;;7.37;45.82;102437.72;4954876;28;112856;-87
2022/03/02 07:30:10;;;;;;;20.55;9.30;;;;;;;7.41;45.95;102444.72;4970410;28;123399;-86
2022/03/02 07:32:41;;;;;;;17.23;8.82;;;;;;;7.44;45.90;102439.44;4955506;28;123003;-86
2022/03/02 07:35:09;;;;;;;20.17;9.10;;;;;;;7.49;45.70;102442.91;4958170;28;113613;-87
2022/03/02 07:37:38;;;;;;;18.45;8.77;;;;;;;7.52;45.74;102442.91;4941718;28;114304;-87
2022/03/02 07:40:06;;;;;;;16.52;8.98;;;;;;;7.57;45.67;102441.13;4971228;28;123831;-86
2022/03/02 07:42:33;;;;;;;18.92;8.68;;;;;;;7.59;45.63;102439.34;4972446;28;123815;-87
2022/03/02 07:45:01;;;;;;;19.75;9.07;;;;;;;7.62;45.69;102442.84;4955084;28;114892;-87
2022/03/02 07:47:28;;;;;;;19.15;9.25;;;;;;;7.64;45.74;102441.94;4940172;28;114276;-85
2022/03/02 07:49:55;;;;;;;17.73;9.23;;;;;;;7.68;45.89;102442.78;4953562;28;124288;-86
2022/03/02 07:52:26;;;;;;;19.02;8.88;;;;;;;7.70;45.96;102438.38;4954778;28;123655;-87
2022/03/02 07:54:58;;;;;;;19.95;8.80;;;;;;;7.72;45.78;102445.41;4954646;28;113034;-87
2022/03/02 07:57:29;;;;;;;19.38;9.52;;;;;;;7.77;46.10;102442.72;4954629;28;113340;-87
2022/03/02 07:59:58;;;;;;;19.55;9.50;;;;;;;7.80;45.94;102442.72;4954246;28;124055;-87
2022/03/02 08:02:29;;;;;;;16.98;8.90;;;;;;;7.85;45.73;102430.34;4970597;28;122465;-86
2022/03/02 08:04:57;;;;;;;17.80;9.00;;;;;;;7.91;46.03;102434.69;4971423;28;114021;-86
2022/03/02 08:07:24;;;;;;;17.73;9.80;;;;;;;7.95;45.90;102421.47;4969540;28;113745;-87
2022/03/02 08:09:53;;;;;;;21.58;9.55;;;;;;;8.02;45.79;102421.41;4937704;28;123761;-86
2022/03/02 08:12:21;;;;;;;16.88;8.55;;;;;;;8.08;45.70;102418.72;4954216;28;122926;-85
2022/03/02 08:14:49;;;;;;;17.60;8.80;;;;;;;8.14;45.66;102426.59;4954795;28;113841;-88
2022/03/02 08:17:18;;;;;;;16.38;8.38;;;;;;;8.22;45.99;102430.03;4955911;28;113406;-86
2022/03/02 08:19:48;;;;;;;19.65;10.10;;;;;;;8.27;45.74;102425.59;4953809;28;123057;-85
2022/03/02 08:22:20;;;;;;;16.30;8.48;;;;;;;8.34;45.46;102429.91;4969926;28;122390;-87
2022/03/02 08:25:10;;;;;;;19.38;9.05;;;;;;;8.40;45.54;102423.72;4954336;28;114276;-87
2022/03/02 08:27:43;;;;;;;18.75;8.73;;;;;;;8.48;45.69;102427.16;4955431;28;113122;-87
2022/03/02 08:30:12;;;;;;;19.80;8.75;;;;;;;8.56;45.42;102421.78;4937377;28;122273;-87
2022/03/02 08:32:44;;;;;;;17.60;8.85;;;;;;;8.64;45.44;102427.84;4953952;28;122990;-86
2022/03/02 08:35:12;;;;;;;20.10;8.77;;;;;;;8.72;45.44;102414.56;4953715;28;113737;-86
2022/03/02 08:37:41;;;;;;;17.23;7.88;;;;;;;8.83;45.17;102423.22;4970246;28;114999;-86
2022/03/02 08:40:10;;;;;;;16.88;8.27;;;;;;;8.91;45.32;102425.75;4952994;28;122827;-87
2022/03/02 08:42:37;;;;;;;14.90;8.25;;;;;;;9.00;45.10;102420.38;4953945;28;122352;-87
2022/03/02 08:45:06;;;;;;;14.27;7.82;;;;;;;9.10;45.10;102421.13;4970610;28;113284;-87
2022/03/02 08:47:34;;;;;;;17.55;7.70;;;;;;;9.19;44.57;102425.41;4973690;28;113555;-86
2022/03/02 08:50:01;;;;;;;16.48;8.27;;;;;;;9.28;44.72;102414.72;4952706;28;123109;-86
2022/03/02 08:52:33;;;;;;;15.07;7.97;;;;;;;9.37;44.24;102411.94;4937947;28;123344;-87
2022/03/02 08:55:04;;;;;;;15.25;7.43;;;;;;;9.48;44.01;102417.94;4969929;28;113644;-87
2022/03/02 08:57:34;;;;;;;14.88;8.05;;;;;;;9.59;44.03;102411.59;4954329;28;112566;-86
2022/03/02 09:00:07;;;;;;;17.38;8.35;;;;;;;9.69;43.75;102410.56;4951400;28;123849;-88
2022/03/02 09:02:39;;;;;;;14.63;7.78;;;;;;;9.81;43.87;102399.75;4937350;28;123408;-86
2022/03/02 09:05:08;;;;;;;16.92;8.13;;;;;;;9.93;43.46;102404.00;4953793;28;114034;-86
2022/03/02 09:07:35;;;;;;;13.75;7.53;;;;;;;10.05;43.38;102397.59;4954440;28;113428;-87
2022/03/02 09:10:04;;;;;;;16.95;8.82;;;;;;;10.18;43.39;102390.31;4952442;28;123840;-87
2022/03/02 09:12:33;;;;;;;16.73;7.72;;;;;;;10.30;43.45;102398.94;4953893;28;123465;-87
2022/03/02 09:15:00;;;;;;;15.23;8.30;;;;;;;10.43;43.11;102394.28;4953448;28;113399;-86
2022/03/02 09:17:28;;;;;;;15.32;8.25;;;;;;;10.54;42.74;102386.13;4953838;28;112955;-85
2022/03/02 09:19:56;;;;;;;13.50;7.80;;;;;;;10.63;42.64;102385.94;4952497;28;122494;-87
2022/03/02 09:22:25;;;;;;;15.32;8.07;;;;;;;10.72;42.58;102384.88;4969294;28;123526;-86
2022/03/02 09:24:52;;;;;;;16.58;7.57;;;;;;;10.81;42.47;102389.09;4952824;28;114435;-86
2022/03/02 09:27:21;;;;;;;15.55;8.30;;;;;;;10.91;42.39;102390.66;4970379;28;114024;-86
2022/03/02 09:29:49;;;;;;;15.18;7.90;;;;;;;10.97;41.70;102395.81;4968211;28;124035;-85
2022/03/02 09:32:19;;;;;;;14.10;7.32;;;;;;;11.01;41.45;102392.19;4937478;28;122508;-87
2022/03/02 09:34:49;;;;;;;15.40;7.43;;;;;;;11.06;41.34;102398.28;4952698;28;113839;-87
2022/03/02 09:37:17;;;;;;;15.43;7.60;;;;;;;11.10;41.35;102392.00;4969067;28;113143;-86
2022/03/02 09:39:48;;;;;;;13.65;7.45;;;;;;;11.17;41.38;102386.53;4952517;28;124433;-88
2022/03/02 09:42:26;;;;;;;14.88;7.50;;;;;;;11.25;41.33;102384.59;4953616;28;123060;-85
2022/03/02 09:45:00;;;;;;;15.55;7.65;;;;;;;11.30;40.75;102382.69;4953216;28;114038;-86
2022/03/02 09:47:40;;;;;;;15.40;7.50;;;;;;;11.35;40.59;102379.97;4968817;28;112573;-86
2022/03/02 09:50:10;;;;;;;14.43;7.53;;;;;;;11.39;40.57;102382.47;4960113;28;123588;-89
2022/03/02 09:52:40;;;;;;;13.13;6.85;;;;;;;11.44;40.35;102375.31;4967611;28;123486;-86
2022/03/02 09:55:10;;;;;;;14.40;7.30;;;;;;;11.54;40.36;102375.06;4978435;28;114697;-87
2022/03/02 09:57:42;;;;;;;12.60;7.00;;;;;;;11.63;40.21;102374.84;4974892;28;113210;-86
2022/03/02 10:00:13;;;;;;;14.02;7.35;;;;;;;11.74;40.65;102374.59;4954348;28;122393;-87
2022/03/02 10:02:43;;;;;;;14.27;8.00;;;;;;;11.81;40.13;102369.09;4953214;28;123101;-85
2022/03/02 10:05:21;;;;;;;15.00;7.65;;;;;;;11.93;40.29;102369.72;4952822;28;113376;-86
2022/03/02 10:07:58;;;;;;;15.88;7.40;;;;;;;11.99;40.02;102365.09;4953604;28;113471;-85
2022/03/02 10:10:28;;;;;;;13.95;7.50;;;;;;;12.07;39.71;102356.94;4952200;28;124774;-87
2022/03/02 10:12:59;;;;;;;14.35;6.93;;;;;;;12.15;39.94;102360.25;4937194;28;123427;-86
2022/03/02 10:15:26;;;;;;;13.57;6.95;;;;;;;12.23;39.60;102360.91;4951895;28;115433;-87
2022/03/02 10:18:00;;;;;;;15.82;7.57;;;;;;;12.31;39.34;102357.19;4968975;28;114420;-87
2022/03/02 10:20:30;;;;;;;14.15;7.07;;;;;;;12.38;39.00;102359.63;4968309;28;124175;-87
2022/03/02 10:23:21;;;;;;;11.40;7.07;;;;;;;12.42;38.71;102360.41;4952317;28;123500;-87
2022/03/02 10:26:28;;;;;;;11.75;7.13;;;;;;;12.42;38.60;102355.09;4952626;28;115305;-86
2022/03/02 10:29:30;;;;;;;14.35;6.60;;;;;;;12.48;38.24;102360.22;4945372;28;113482;-87
2022/03/02 10:32:08;;;;;;;11.15;6.25;;;;;;;12.55;38.13;102361.78;4955233;28;123154;-87
2022/03/02 10:34:37;;;;;;;14.40;7.38;;;;;;;12.60;38.12;102359.88;4972446;28;123130;-85
2022/03/02 10:37:04;;;;;;;12.35;7.00;;;;;;;12.65;37.96;102357.06;4956047;28;113785;-86
2022/03/02 10:39:50;;;;;;;11.45;6.53;;;;;;;12.70;37.67;102371.09;4955415;28;113219;-86
2022/03/02 10:42:28;;;;;;;11.30;6.22;;;;;;;12.75;37.57;102362.97;4955696;28;123912;-87
2022/03/02 10:45:06;;;;;;;12.32;6.10;;;;;;;12.80;37.79;102361.94;4956087;28;123822;-87
2022/03/02 10:47:39;;;;;;;13.23;6.70;;;;;;;12.89;37.76;102350.16;4956756;28;114002;-87
2022/03/02 10:50:06;;;;;;;11.68;6.50;;;;;;;12.99;37.59;102356.91;4971132;28;113464;-86
2022/03/02 10:52:38;;;;;;;13.85;6.75;;;;;;;13.06;37.27;102352.28;4955707;28;122485;-86
2022/03/02 10:55:11;;;;;;;11.27;6.45;;;;;;;13.12;36.94;102352.09;4971908;28;123133;-87
2022/03/02 10:57:39;;;;;;;14.40;6.93;;;;;;;13.18;37.04;102351.03;4972269;28;113239;-87
2022/03/02 11:00:14;;;;;;;13.93;6.75;;;;;;;13.22;37.04;102358.00;4955241;28;113570;-86
2022/03/02 11:02:44;;;;;;;11.52;6.97;;;;;;;13.28;36.71;102357.81;4972502;28;123104;-87
2022/03/02 11:05:14;;;;;;;11.32;6.57;;;;;;;13.31;36.43;102352.41;4956493;28;122199;-87
2022/03/02 11:07:45;;;;;;;11.50;6.63;;;;;;;13.36;36.73;102350.47;4972529;28;114631;-87
2022/03/02 11:10:16;;;;;;;13.13;6.90;;;;;;;13.38;36.18;102343.31;4955480;28;115759;-86
2022/03/02 11:12:47;;;;;;;12.88;6.57;;;;;;;13.44;36.93;102337.78;4955636;28;123229;-87
2022/03/02 11:15:16;;;;;;;12.13;6.55;;;;;;;13.54;36.91;102337.47;4972352;28;122338;-87
2022/03/02 11:17:52;;;;;;;12.88;7.25;;;;;;;13.60;36.22;102331.97;4956202;28;113359;-87
2022/03/02 11:20:20;;;;;;;13.73;6.95;;;;;;;13.65;36.51;102335.31;4955207;28;113321;-87
2022/03/02 11:22:55;;;;;;;11.20;6.57;;;;;;;13.72;36.22;102326.22;4955670;28;124113;-86
2022/03/02 11:25:45;;;;;;;11.18;7.10;;;;;;;13.78;36.42;102326.00;4955958;28;123426;-86